Time;durP1;ratioP1;P1;durP2;ratioP2;P2;SDS_P1;SDS_P2;PMS_P1;PMS_P2;Temp;Humidity;BMP_temperature;BMP_pressure;BME280_temperature;BME280_humidity;BME280_pressure;Samples;Min_cycle;Max_cycle;Signal;HPM_P1;HPM_P2
2023/09/08 00:01:37;;;;;;;5.78;5.30;;;;;;;16.47;100.00;102094.31;4990770;28;20268;-44
2023/09/08 00:04:03;;;;;;;6.03;5.53;;;;;;;16.44;100.00;102087.22;4990944;28;20200;-44
2023/09/08 00:06:29;;;;;;;7.78;5.70;;;;;;;16.36;100.00;102099.31;4990418;28;20213;-44
2023/09/08 00:08:54;;;;;;;6.47;5.70;;;;;;;16.26;100.00;102091.56;4990513;28;20181;-45
2023/09/08 00:11:20;;;;;;;6.35;5.85;;;;;;;16.18;100.00;102092.81;4990489;28;20300;-45
2023/09/08 00:13:45;;;;;;;7.13;6.35;;;;;;;16.03;100.00;102092.53;4990604;28;20166;-44
2023/09/08 00:16:11;;;;;;;6.63;6.03;;;;;;;16.12;100.00;102093.09;4990367;28;20636;-45
2023/09/08 00:18:36;;;;;;;6.00;5.45;;;;;;;16.13;100.00;102102.94;4990758;28;20185;-49
2023/09/08 00:21:02;;;;;;;6.40;5.80;;;;;;;16.14;100.00;102096.63;4990301;28;20209;-45
2023/09/08 00:23:28;;;;;;;6.47;4.90;;;;;;;16.18;100.00;102101.84;4990247;28;20177;-45
2023/09/08 00:25:54;;;;;;;6.07;5.57;;;;;;;16.20;100.00;102096.34;4990104;28;20280;-45
2023/09/08 00:28:19;;;;;;;5.75;5.25;;;;;;;16.21;100.00;102099.00;4989969;28;20173;-47
2023/09/08 00:30:45;;;;;;;4.82;4.53;;;;;;;16.16;100.00;102098.31;4990071;28;20189;-46
2023/09/08 00:33:12;;;;;;;5.32;4.82;;;;;;;16.14;100.00;102104.72;4990183;28;20173;-45
2023/09/08 00:35:38;;;;;;;6.10;5.50;;;;;;;16.06;100.00;102102.31;4972442;28;20174;-49
2023/09/08 00:38:04;;;;;;;6.53;5.93;;;;;;;15.86;100.00;102097.72;4989892;28;20261;-51
2023/09/08 00:40:29;;;;;;;6.40;5.80;;;;;;;15.76;100.00;102094.50;4972491;28;20324;-46
2023/09/08 00:42:55;;;;;;;5.72;5.22;;;;;;;15.88;100.00;102089.56;4989937;28;20174;-43
2023/09/08 00:45:20;;;;;;;7.57;5.95;;;;;;;15.73;100.00;102099.16;4989765;28;20580;-50
2023/09/08 00:47:46;;;;;;;5.70;5.20;;;;;;;15.72;100.00;102097.38;4989684;28;20192;-44
2023/09/08 00:50:12;;;;;;;5.93;5.38;;;;;;;15.69;100.00;102090.25;4989615;28;20273;-45
2023/09/08 00:52:37;;;;;;;5.88;5.38;;;;;;;15.69;100.00;102087.56;4972082;28;20190;-45
2023/09/08 00:55:04;;;;;;;6.00;5.45;;;;;;;15.72;100.00;102094.69;4972268;28;20659;-50
2023/09/08 00:57:30;;;;;;;5.80;5.30;;;;;;;15.74;100.00;102084.69;4972243;28;20256;-49
2023/09/08 00:59:56;;;;;;;6.40;5.80;;;;;;;15.72;100.00;102082.06;4971898;28;20181;-46
2023/09/08 01:02:22;;;;;;;6.88;6.35;;;;;;;15.60;100.00;102080.69;4989855;28;20184;-49
2023/09/08 01:04:48;;;;;;;9.43;6.30;;;;;;;15.53;100.00;102078.31;4989221;28;20173;-44
2023/09/08 01:07:14;;;;;;;7.28;6.68;;;;;;;15.62;100.00;102081.50;4989121;28;20240;-45
2023/09/08 01:09:40;;;;;;;8.13;7.45;;;;;;;15.67;100.00;102078.63;4989154;28;20181;-46
2023/09/08 01:12:07;;;;;;;8.00;7.30;;;;;;;15.59;100.00;102076.25;4989325;28;20624;-50
2023/09/08 01:14:32;;;;;;;7.45;6.68;;;;;;;15.59;100.00;102080.75;4989160;28;20667;-50
2023/09/08 01:16:58;;;;;;;7.57;6.88;;;;;;;15.57;100.00;102079.94;4989408;28;20169;-44
2023/09/08 01:19:23;;;;;;;7.65;7.00;;;;;;;15.48;100.00;102085.69;4971718;28;20169;-48
2023/09/08 01:22:21;;;;;;;8.80;7.60;;;;;;;15.30;100.00;102073.78;4969928;28;20201;-48
2023/09/08 01:25:09;;;;;;;9.27;7.28;;;;;;;15.23;100.00;102068.59;4989193;28;20337;-47
2023/09/08 01:27:37;;;;;;;7.93;7.07;;;;;;;15.29;100.00;102067.50;4989531;28;20321;-45
2023/09/08 01:30:06;;;;;;;7.95;7.25;;;;;;;15.25;100.00;102066.72;4988956;28;20204;-45
2023/09/08 01:32:35;;;;;;;7.97;7.28;;;;;;;15.37;100.00;102064.50;4989095;28;20219;-45
2023/09/08 01:35:02;;;;;;;9.45;7.85;;;;;;;15.33;100.00;102068.28;4988946;28;20227;-45
2023/09/08 01:37:28;;;;;;;10.65;8.05;;;;;;;15.33;100.00;102069.16;4989277;28;20928;-46
2023/09/08 01:39:53;;;;;;;8.02;7.28;;;;;;;15.35;100.00;102069.06;4971236;28;20173;-47
2023/09/08 01:42:19;;;;;;;9.73;8.73;;;;;;;15.34;100.00;102070.91;4971467;28;20177;-47
2023/09/08 01:44:45;;;;;;;8.93;8.15;;;;;;;15.34;100.00;102076.28;4971640;28;20184;-48
2023/09/08 01:47:10;;;;;;;9.75;8.70;;;;;;;15.39;100.00;102065.31;4971335;28;20258;-46
2023/09/08 01:49:36;;;;;;;8.18;7.47;;;;;;;15.35;100.00;102072.66;4988859;28;20188;-44
2023/09/08 01:52:02;;;;;;;7.30;6.70;;;;;;;15.36;100.00;102065.44;4988916;28;20189;-45
2023/09/08 01:54:27;;;;;;;8.30;7.53;;;;;;;15.29;100.00;102066.63;4971502;28;20224;-47
2023/09/08 01:56:54;;;;;;;8.30;7.18;;;;;;;15.29;100.00;102063.94;4989041;28;20170;-47
2023/09/08 01:59:19;;;;;;;11.60;8.82;;;;;;;15.21;100.00;102062.38;4971658;28;20185;-45
2023/09/08 02:01:45;;;;;;;11.52;8.27;;;;;;;15.18;100.00;102058.94;4988892;28;20197;-45
2023/09/08 02:04:10;;;;;;;10.43;9.45;;;;;;;15.24;100.00;102054.19;4988746;28;20624;-47
2023/09/08 02:06:36;;;;;;;8.38;7.68;;;;;;;15.28;100.00;102052.22;4988601;28;20236;-52
2023/09/08 02:09:01;;;;;;;9.05;8.27;;;;;;;15.27;100.00;102055.88;4988701;28;20324;-45
2023/09/08 02:11:27;;;;;;;8.73;7.97;;;;;;;15.27;100.00;102053.19;4971204;28;20217;-45
2023/09/08 02:13:53;;;;;;;9.60;8.82;;;;;;;15.20;100.00;102048.97;4988764;28;20587;-50
2023/09/08 02:16:19;;;;;;;13.68;9.48;;;;;;;15.23;100.00;102054.22;4988963;28;20166;-48
2023/09/08 02:18:45;;;;;;;8.73;7.90;;;;;;;15.23;100.00;102048.84;4971732;28;20551;-50
2023/09/08 02:21:11;;;;;;;13.70;9.10;;;;;;;15.15;100.00;102042.84;4974987;28;20206;-46
2023/09/08 02:23:37;;;;;;;10.05;9.23;;;;;;;15.04;100.00;102049.53;4975072;28;20648;-45
2023/09/08 02:26:03;;;;;;;10.20;9.30;;;;;;;14.99;100.00;102045.25;4974745;28;20536;-45
2023/09/08 02:28:29;;;;;;;9.73;8.80;;;;;;;14.96;100.00;102030.03;4974938;28;20626;-45
2023/09/08 02:30:56;;;;;;;9.90;9.00;;;;;;;14.93;100.00;102037.34;4974827;28;20200;-46
2023/09/08 02:33:22;;;;;;;10.82;9.90;;;;;;;14.76;100.00;102033.47;4992395;28;20216;-46
2023/09/08 02:35:48;;;;;;;10.98;9.88;;;;;;;14.92;100.00;102032.91;4992430;28;20193;-45
2023/09/08 02:38:15;;;;;;;11.05;9.77;;;;;;;14.93;100.00;102031.97;4974699;28;20186;-50
2023/09/08 02:40:41;;;;;;;12.10;10.90;;;;;;;15.02;100.00;102035.22;4992028;28;20197;-49
2023/09/08 02:43:06;;;;;;;12.63;11.43;;;;;;;15.09;100.00;102032.28;4974807;28;20170;-46
2023/09/08 02:45:32;;;;;;;12.68;11.43;;;;;;;15.24;100.00;102032.56;4992483;28;20590;-45
2023/09/08 02:47:57;;;;;;;12.45;11.35;;;;;;;15.18;100.00;102023.84;4992101;28;20203;-48
2023/09/08 02:50:23;;;;;;;12.43;11.23;;;;;;;15.23;100.00;102030.81;4992094;28;20725;-45
2023/09/08 02:52:49;;;;;;;12.32;11.20;;;;;;;15.29;100.00;102028.81;4974590;28;20553;-45
2023/09/08 02:55:15;;;;;;;14.23;10.90;;;;;;;15.42;100.00;102027.41;4992348;28;20248;-48
2023/09/08 02:57:41;;;;;;;13.95;10.90;;;;;;;15.50;100.00;102024.38;4992236;28;20580;-46
2023/09/08 03:00:07;;;;;;;11.60;10.23;;;;;;;15.53;100.00;102021.56;4990484;28;20222;-45
2023/09/08 03:02:33;;;;;;;10.45;9.55;;;;;;;15.50;100.00;102021.69;4991696;28;20172;-46
2023/09/08 03:05:00;;;;;;;11.65;10.43;;;;;;;15.43;100.00;102013.81;4974316;28;20630;-47
2023/09/08 03:07:27;;;;;;;12.18;10.27;;;;;;;15.45;100.00;102021.88;4991747;28;20710;-46
2023/09/08 03:09:53;;;;;;;12.13;10.02;;;;;;;15.47;100.00;102019.13;4974247;28;20216;-46
2023/09/08 03:12:18;;;;;;;10.82;9.88;;;;;;;15.38;100.00;102013.13;4991730;28;20281;-45
2023/09/08 03:14:44;;;;;;;10.88;9.95;;;;;;;15.52;100.00;102015.28;4974193;28;20270;-48
2023/09/08 03:17:11;;;;;;;10.88;9.93;;;;;;;15.51;100.00;102024.34;4991550;28;20170;-47
2023/09/08 03:19:36;;;;;;;13.20;9.13;;;;;;;15.41;100.00;102020.22;4974132;28;20177;-47
2023/09/08 03:22:02;;;;;;;10.70;8.38;;;;;;;15.32;100.00;102013.38;4990803;28;20200;-48
2023/09/08 03:24:28;;;;;;;9.55;8.57;;;;;;;15.13;100.00;102021.31;4973926;28;20189;-49
2023/09/08 03:26:54;;;;;;;8.38;7.70;;;;;;;15.06;100.00;102017.06;4974223;28;20197;-45
2023/09/08 03:29:20;;;;;;;9.30;8.02;;;;;;;15.00;100.00;102018.19;4973950;28;20180;-46
2023/09/08 03:31:46;;;;;;;8.07;7.28;;;;;;;14.83;100.00;102012.56;4972039;28;20197;-45
2023/09/08 03:34:12;;;;;;;8.05;7.40;;;;;;;14.88;100.00;102009.69;4991430;28;20166;-44
2023/09/08 03:36:38;;;;;;;8.55;7.75;;;;;;;14.74;100.00;102005.69;4973780;28;20273;-45
2023/09/08 03:39:04;;;;;;;9.23;8.38;;;;;;;14.68;100.00;102010.41;4973690;28;20264;-44
2023/09/08 03:41:29;;;;;;;8.52;7.75;;;;;;;14.60;100.00;102002.59;4973551;28;20283;-45
2023/09/08 03:43:56;;;;;;;9.20;8.27;;;;;;;14.56;100.00;102003.63;4991297;28;20170;-49
2023/09/08 03:46:24;;;;;;;9.63;8.93;;;;;;;14.59;100.00;101998.16;4973276;28;20209;-47
2023/09/08 03:48:50;;;;;;;9.73;8.80;;;;;;;14.51;100.00;101997.50;4973368;28;20177;-48
2023/09/08 03:51:15;;;;;;;9.95;9.13;;;;;;;14.48;100.00;101995.81;4991139;28;20192;-43
2023/09/08 03:53:41;;;;;;;11.02;10.00;;;;;;;14.51;100.00;101997.50;4991079;28;20554;-46
2023/09/08 03:56:06;;;;;;;11.90;10.65;;;;;;;14.52;100.00;101989.38;4973383;28;20181;-48
2023/09/08 03:58:32;;;;;;;11.88;10.77;;;;;;;14.58;100.00;101996.38;4990862;28;20174;-50
2023/09/08 04:00:57;;;;;;;11.52;10.52;;;;;;;14.67;100.00;101990.66;4990941;28;20237;-45
2023/09/08 04:03:23;;;;;;;12.88;11.63;;;;;;;14.69;100.00;101994.16;4973432;28;20532;-45
2023/09/08 04:05:49;;;;;;;12.77;11.50;;;;;;;14.76;100.00;101992.16;4989413;28;20189;-49
2023/09/08 04:08:14;;;;;;;12.13;11.02;;;;;;;14.84;100.00;101998.97;4973007;28;20178;-44
2023/09/08 04:10:40;;;;;;;12.82;11.18;;;;;;;14.85;100.00;101997.19;4954620;28;20244;-46
2023/09/08 04:13:05;;;;;;;12.07;11.07;;;;;;;14.79;100.00;102000.09;4989301;28;20181;-49
2023/09/08 04:15:32;;;;;;;12.25;10.95;;;;;;;14.80;100.00;101994.66;4972714;28;20675;-45
2023/09/08 04:17:57;;;;;;;11.63;10.63;;;;;;;14.78;100.00;101990.25;4990152;28;20185;-50
2023/09/08 04:20:23;;;;;;;10.00;9.05;;;;;;;14.54;100.00;102002.78;4990273;28;20201;-45
2023/09/08 04:22:49;;;;;;;8.88;8.18;;;;;;;14.35;100.00;101997.19;4972836;28;20537;-47
2023/09/08 04:25:14;;;;;;;9.00;8.20;;;;;;;14.25;100.00;101993.91;4972701;28;20177;-48
2023/09/08 04:27:40;;;;;;;9.90;9.10;;;;;;;14.14;100.00;101993.41;4972650;28;20762;-45
2023/09/08 04:30:06;;;;;;;9.65;8.75;;;;;;;13.91;100.00;101983.44;4989876;28;20204;-46
2023/09/08 04:32:32;;;;;;;10.63;9.68;;;;;;;14.03;100.00;101974.91;4990104;28;20236;-46
2023/09/08 04:34:58;;;;;;;11.60;10.50;;;;;;;14.06;100.00;101982.00;4989608;28;20192;-46
2023/09/08 04:37:24;;;;;;;11.05;10.00;;;;;;;13.95;100.00;101979.66;4989664;28;20170;-47
2023/09/08 04:39:49;;;;;;;12.18;11.18;;;;;;;14.01;100.00;101976.78;4989493;28;20608;-47
2023/09/08 04:42:15;;;;;;;12.00;10.82;;;;;;;13.97;100.00;101976.00;4987420;28;20181;-48
2023/09/08 04:44:42;;;;;;;12.35;10.95;;;;;;;14.06;100.00;101973.91;4989679;28;20185;-48
2023/09/08 04:47:08;;;;;;;11.90;10.90;;;;;;;14.17;100.00;101971.75;4971718;28;20202;-46
2023/09/08 04:49:34;;;;;;;12.48;11.38;;;;;;;14.32;100.00;101975.69;4987236;28;20185;-50
2023/09/08 04:51:59;;;;;;;12.32;11.23;;;;;;;14.42;100.00;101977.13;4988660;28;20307;-47
2023/09/08 04:54:27;;;;;;;13.68;12.48;;;;;;;14.51;100.00;101971.41;4971544;28;20200;-45
2023/09/08 04:56:54;;;;;;;13.25;12.15;;;;;;;14.52;100.00;101973.19;4971587;28;20176;-46
2023/09/08 04:59:20;;;;;;;13.60;12.35;;;;;;;14.56;100.00;101973.97;4989705;28;20571;-44
2023/09/08 05:01:46;;;;;;;13.20;11.82;;;;;;;14.51;100.00;101975.94;4971678;28;20206;-46
2023/09/08 05:04:12;;;;;;;12.05;10.95;;;;;;;14.51;100.00;101976.81;4989286;28;20174;-47
2023/09/08 05:06:37;;;;;;;12.07;10.73;;;;;;;14.52;100.00;101973.19;4971675;28;20236;-49
2023/09/08 05:09:03;;;;;;;12.65;11.35;;;;;;;14.69;100.00;101980.66;4989375;28;20627;-48
2023/09/08 05:11:30;;;;;;;11.45;10.32;;;;;;;14.79;100.00;101976.69;4989134;28;20576;-47
2023/09/08 05:13:57;;;;;;;12.27;11.18;;;;;;;14.90;100.00;101984.38;4971751;28;20185;-46
2023/09/08 05:16:37;;;;;;;12.95;11.52;;;;;;;15.20;100.00;101982.34;4987656;28;20264;-46
2023/09/08 05:19:04;;;;;;;12.30;11.05;;;;;;;15.47;100.00;101973.19;4971793;28;20216;-50
2023/09/08 05:21:31;;;;;;;10.98;10.02;;;;;;;15.61;100.00;101965.41;4971451;28;20292;-49
2023/09/08 05:23:56;;;;;;;10.85;9.95;;;;;;;15.74;100.00;101965.81;4989330;28;20173;-49
2023/09/08 05:26:22;;;;;;;10.48;9.60;;;;;;;15.73;100.00;101964.94;4971256;28;20722;-45
2023/09/08 05:28:48;;;;;;;11.52;10.35;;;;;;;15.75;100.00;101968.44;4969486;28;20260;-46
2023/09/08 05:31:13;;;;;;;11.45;9.15;;;;;;;15.79;100.00;101970.09;4971200;28;20205;-46
2023/09/08 05:33:39;;;;;;;9.38;8.57;;;;;;;16.28;100.00;101969.78;4971286;28;20647;-46
2023/09/08 05:36:05;;;;;;;10.13;9.32;;;;;;;16.60;100.00;101965.66;4971550;28;20173;-50
2023/09/08 05:38:31;;;;;;;9.40;8.60;;;;;;;16.96;100.00;101964.06;4971446;28;20188;-45
2023/09/08 05:40:57;;;;;;;9.02;8.23;;;;;;;17.25;100.00;101965.38;4955487;28;20689;-46
2023/09/08 05:43:25;;;;;;;9.38;8.07;;;;;;;17.33;100.00;101946.94;4971391;28;20188;-45
2023/09/08 05:45:51;;;;;;;8.73;7.68;;;;;;;17.64;100.00;101943.56;4971022;28;20232;-45
2023/09/08 05:48:18;;;;;;;9.48;8.00;;;;;;;17.92;100.00;101950.34;4971434;28;20275;-50
2023/09/08 05:50:44;;;;;;;8.25;7.43;;;;;;;18.18;100.00;101935.44;4971433;28;20205;-47
2023/09/08 05:53:10;;;;;;;7.43;6.63;;;;;;;18.45;100.00;101943.94;4971624;28;20243;-46
2023/09/08 05:55:36;;;;;;;7.75;6.47;;;;;;;18.65;100.00;101933.84;4974530;28;20650;-46
2023/09/08 05:58:02;;;;;;;6.88;6.28;;;;;;;18.87;100.00;101937.19;4993044;28;20205;-46
2023/09/08 06:00:28;;;;;;;6.95;6.35;;;;;;;18.96;100.00;101930.38;4992760;28;20255;-47
2023/09/08 06:02:54;;;;;;;6.45;5.95;;;;;;;19.32;100.00;101929.22;4975405;28;20280;-46
2023/09/08 06:05:20;;;;;;;6.38;5.78;;;;;;;19.53;100.00;101927.97;4975182;28;20568;-46
2023/09/08 06:07:46;;;;;;;7.80;6.55;;;;;;;19.76;100.00;101915.75;4975185;28;20204;-51
2023/09/08 06:10:11;;;;;;;7.53;5.55;;;;;;;19.94;100.00;101921.06;4974985;28;20208;-46
2023/09/08 06:12:37;;;;;;;6.47;5.78;;;;;;;20.06;98.54;101914.03;4974998;28;20181;-46
2023/09/08 06:15:03;;;;;;;6.25;5.65;;;;;;;20.31;96.46;101916.09;4974610;28;20267;-47
2023/09/08 06:17:30;;;;;;;6.43;5.78;;;;;;;20.48;94.17;101913.19;4975023;28;20276;-46
2023/09/08 06:19:55;;;;;;;5.85;5.32;;;;;;;20.52;92.14;101912.03;4974638;28;20699;-47
2023/09/08 06:22:21;;;;;;;8.52;6.18;;;;;;;20.68;91.24;101902.94;4992428;28;20177;-47
2023/09/08 06:24:47;;;;;;;6.75;5.93;;;;;;;20.85;89.93;101894.56;4974906;28;20271;-47
2023/09/08 06:27:15;;;;;;;7.03;5.55;;;;;;;21.02;89.09;101898.06;4974878;28;20227;-45
2023/09/08 06:29:43;;;;;;;11.43;5.93;;;;;;;21.27;87.88;101889.97;4974692;28;20177;-47
2023/09/08 06:32:10;;;;;;;6.68;6.05;;;;;;;21.45;86.42;101890.66;4974806;28;20188;-45
2023/09/08 06:34:37;;;;;;;8.15;6.05;;;;;;;21.40;85.09;101885.47;4974782;28;20563;-45
2023/09/08 06:37:03;;;;;;;7.10;5.68;;;;;;;21.52;83.89;101891.13;4992390;28;20251;-46
2023/09/08 06:39:29;;;;;;;6.53;5.35;;;;;;;21.53;82.27;101873.75;4974571;28;20209;-48
2023/09/08 06:41:55;;;;;;;9.50;5.80;;;;;;;21.69;81.20;101882.66;4958796;28;20243;-46
2023/09/08 06:44:21;;;;;;;5.93;5.18;;;;;;;21.68;80.63;101877.31;4974303;28;20180;-42
2023/09/08 06:46:47;;;;;;;5.65;5.22;;;;;;;21.99;80.37;101873.31;4991565;28;20222;-48
2023/09/08 06:49:13;;;;;;;6.82;5.90;;;;;;;21.72;79.57;101870.66;4974476;28;20184;-44
2023/09/08 06:51:39;;;;;;;6.93;5.80;;;;;;;21.75;79.53;101871.31;4991914;28;20232;-47
2023/09/08 06:54:05;;;;;;;8.63;6.53;;;;;;;21.77;79.23;101863.91;4992322;28;20185;-44
2023/09/08 06:56:37;;;;;;;6.75;6.15;;;;;;;21.88;78.53;101860.44;4958809;28;20227;-45
2023/09/08 06:59:03;;;;;;;9.90;5.68;;;;;;;21.96;77.71;101859.91;4973931;28;20184;-47
2023/09/08 07:01:29;;;;;;;6.75;6.07;;;;;;;21.88;77.46;101860.44;4974149;28;20756;-49
2023/09/08 07:03:55;;;;;;;6.60;5.82;;;;;;;22.35;77.23;101858.97;4974138;28;20260;-43
2023/09/08 07:06:22;;;;;;;6.13;5.50;;;;;;;22.46;76.94;101860.06;4973117;28;20291;-46
2023/09/08 07:08:52;;;;;;;6.30;5.50;;;;;;;22.49;75.72;101843.44;4974067;28;20181;-49
2023/09/08 07:11:19;;;;;;;6.47;5.70;;;;;;;22.62;74.47;101855.22;4974006;28;20202;-44
2023/09/08 07:13:45;;;;;;;6.43;5.40;;;;;;;23.00;73.79;101851.53;4974206;28;20220;-45
2023/09/08 07:16:11;;;;;;;6.03;5.30;;;;;;;23.21;72.78;101847.19;4973800;28;20192;-47
2023/09/08 07:18:38;;;;;;;6.70;5.68;;;;;;;23.28;72.02;101846.75;4974119;28;20656;-50
2023/09/08 07:21:06;;;;;;;6.40;5.80;;;;;;;23.38;70.95;101834.97;4973992;28;20263;-50
2023/09/08 07:23:31;;;;;;;10.32;5.50;;;;;;;23.10;69.09;101822.53;4974038;28;20220;-48
2023/09/08 07:25:57;;;;;;;8.70;5.78;;;;;;;22.92;69.90;101830.22;4991436;28;20643;-49
2023/09/08 07:28:27;;;;;;;5.82;5.28;;;;;;;23.18;69.27;101816.50;4973877;28;20176;-46
2023/09/08 07:31:00;;;;;;;7.20;5.35;;;;;;;22.96;68.92;101814.50;4973828;28;20203;-46
2023/09/08 07:33:26;;;;;;;7.65;6.05;;;;;;;23.07;69.17;101816.41;4991433;28;20165;-47
2023/09/08 07:35:53;;;;;;;7.05;5.95;;;;;;;22.87;68.60;101812.41;4991323;28;20165;-44
2023/09/08 07:38:18;;;;;;;8.35;5.95;;;;;;;22.83;68.81;101799.00;4970509;28;20189;-48
2023/09/08 07:40:44;;;;;;;8.00;5.97;;;;;;;23.20;68.91;101811.78;4954102;28;20217;-51
2023/09/08 07:43:10;;;;;;;6.47;5.53;;;;;;;22.97;68.32;101808.00;4971724;28;20176;-45
2023/09/08 07:45:36;;;;;;;5.93;5.32;;;;;;;22.98;67.93;101810.66;4970184;28;20208;-44
2023/09/08 07:48:01;;;;;;;7.00;6.05;;;;;;;23.11;67.74;101798.78;4983065;28;20221;-46
2023/09/08 07:50:28;;;;;;;7.18;5.88;;;;;;;23.38;67.82;101806.78;4990828;28;20197;-45
2023/09/08 07:52:55;;;;;;;10.00;5.65;;;;;;;23.70;67.51;101806.13;4990916;28;20374;-46
2023/09/08 07:55:22;;;;;;;6.03;5.40;;;;;;;23.71;67.26;101805.13;4990784;28;20220;-47
2023/09/08 07:57:49;;;;;;;8.52;5.97;;;;;;;23.66;66.57;101800.03;4990543;28;20204;-48
2023/09/08 08:00:16;;;;;;;6.70;6.00;;;;;;;23.61;66.94;101799.50;4990519;28;20288;-47
2023/09/08 08:02:45;;;;;;;6.50;5.90;;;;;;;23.67;66.95;101801.75;4990424;28;20616;-46
2023/09/08 08:05:10;;;;;;;6.55;5.97;;;;;;;24.02;65.99;101798.13;4990577;28;20179;-47
2023/09/08 08:07:36;;;;;;;5.85;5.10;;;;;;;24.23;66.23;101792.81;4990697;28;20302;-51
2023/09/08 08:10:01;;;;;;;6.40;5.10;;;;;;;24.41;65.55;101788.56;4971235;28;20740;-45
2023/09/08 08:12:27;;;;;;;8.30;5.57;;;;;;;24.21;65.08;101781.09;4975939;28;20231;-45
2023/09/08 08:14:53;;;;;;;6.97;6.13;;;;;;;24.43;64.25;101775.63;4989587;28;20223;-44
2023/09/08 08:17:19;;;;;;;5.93;5.35;;;;;;;24.30;64.14;101769.41;4989707;28;20180;-49
2023/09/08 08:19:45;;;;;;;6.47;5.88;;;;;;;24.42;63.61;101773.88;4989921;28;20197;-49
2023/09/08 08:22:10;;;;;;;9.05;6.07;;;;;;;24.24;64.67;101780.84;4990449;28;20216;-49
2023/09/08 08:24:36;;;;;;;7.70;6.07;;;;;;;24.36;64.59;101784.44;4990557;28;20189;-49
2023/09/08 08:27:02;;;;;;;7.30;6.07;;;;;;;24.70;64.29;101771.63;4990431;28;20209;-46
2023/09/08 08:29:29;;;;;;;6.50;5.93;;;;;;;25.00;63.59;101770.91;4990155;28;20173;-46
2023/09/08 08:31:54;;;;;;;9.07;5.60;;;;;;;25.16;63.21;101761.38;4990055;28;20227;-46
2023/09/08 08:34:20;;;;;;;6.65;5.70;;;;;;;25.00;62.69;101773.66;4989990;28;20256;-47
2023/09/08 08:36:45;;;;;;;8.18;6.07;;;;;;;24.65;62.49;101757.44;4990084;28;20176;-46
2023/09/08 08:39:11;;;;;;;7.15;5.75;;;;;;;24.87;62.44;101760.09;4990231;28;20165;-45
2023/09/08 08:41:39;;;;;;;7.63;5.57;;;;;;;25.01;62.32;101758.06;4989986;28;20196;-47
2023/09/08 08:44:08;;;;;;;9.07;6.20;;;;;;;25.20;62.29;101761.03;4970796;28;20209;-46
2023/09/08 08:46:35;;;;;;;10.20;5.40;;;;;;;25.54;62.30;101754.47;4970459;28;20671;-45
2023/09/08 08:49:03;;;;;;;5.18;4.68;;;;;;;25.84;60.58;101735.31;4973254;28;20536;-48
2023/09/08 08:51:30;;;;;;;8.13;5.90;;;;;;;25.83;60.45;101735.47;4989973;28;20594;-48
2023/09/08 08:54:04;;;;;;;6.63;5.38;;;;;;;25.73;61.02;101731.78;4989586;28;20264;-46
2023/09/08 08:56:30;;;;;;;8.23;5.35;;;;;;;25.42;60.24;101724.38;4989973;28;20169;-47
2023/09/08 08:58:57;;;;;;;6.30;5.63;;;;;;;25.48;60.02;101722.97;4989717;28;20181;-48
2023/09/08 09:01:24;;;;;;;7.15;5.45;;;;;;;25.43;60.36;101728.88;4989420;28;20291;-44
2023/09/08 09:03:50;;;;;;;7.40;5.55;;;;;;;25.60;59.85;101710.91;4989545;28;20192;-48
2023/09/08 09:06:16;;;;;;;6.25;5.65;;;;;;;25.43;59.51;101712.41;4989711;28;20666;-46
2023/09/08 09:08:43;;;;;;;10.25;5.25;;;;;;;25.59;60.33;101714.66;4989750;28;20165;-45
2023/09/08 09:11:09;;;;;;;6.15;5.55;;;;;;;25.59;60.31;101711.06;4989450;28;20207;-43
2023/09/08 09:13:35;;;;;;;9.23;5.63;;;;;;;25.32;60.56;101711.59;4989920;28;20180;-44
2023/09/08 09:16:03;;;;;;;7.90;5.45;;;;;;;25.51;59.90;101711.72;4989145;28;20177;-47
2023/09/08 09:18:31;;;;;;;8.68;5.28;;;;;;;25.39;60.12;101702.69;4989509;28;20231;-49
2023/09/08 09:21:00;;;;;;;10.05;5.53;;;;;;;25.46;60.80;101717.63;4989124;28;20892;-47
2023/09/08 09:23:33;;;;;;;7.35;5.13;;;;;;;25.69;60.44;101706.47;4988755;28;20651;-47
2023/09/08 09:26:03;;;;;;;7.90;5.60;;;;;;;25.94;59.99;101710.69;4989281;28;20188;-46
2023/09/08 09:28:29;;;;;;;10.10;5.85;;;;;;;26.33;58.94;101688.88;4988353;28;20648;-52
2023/09/08 09:30:55;;;;;;;7.75;5.63;;;;;;;26.07;58.69;101680.25;4988700;28;20212;-47
2023/09/08 09:33:22;;;;;;;6.60;5.35;;;;;;;25.87;58.41;101682.03;4989401;28;20168;-46
2023/09/08 09:35:49;;;;;;;10.02;5.35;;;;;;;25.87;58.09;101680.16;4989042;28;20250;-45
2023/09/08 09:38:16;;;;;;;7.38;5.28;;;;;;;26.00;57.85;101665.31;4988648;28;20176;-46
2023/09/08 09:40:42;;;;;;;5.78;5.22;;;;;;;25.75;58.11;101675.75;4988709;28;20223;-52
2023/09/08 09:43:09;;;;;;;7.50;5.40;;;;;;;25.41;58.49;101667.78;4988987;28;20189;-47
2023/09/08 09:45:36;;;;;;;7.55;5.30;;;;;;;25.94;58.50;101669.50;4988776;28;20260;-49
2023/09/08 09:48:05;;;;;;;11.07;5.72;;;;;;;26.15;57.32;101652.06;4988560;28;20275;-45
2023/09/08 09:50:35;;;;;;;5.65;5.15;;;;;;;26.45;57.93;101664.88;4988635;28;20204;-51
2023/09/08 09:53:11;;;;;;;6.60;5.47;;;;;;;26.62;58.02;101666.09;4988127;28;20235;-50
2023/09/08 09:55:41;;;;;;;7.20;4.78;;;;;;;26.62;57.25;101652.34;4988819;28;20537;-47
2023/09/08 09:58:08;;;;;;;7.10;4.57;;;;;;;26.74;57.40;101658.56;4988439;28;20204;-47
2023/09/08 10:00:35;;;;;;;5.45;4.78;;;;;;;26.66;56.32;101634.56;4988492;28;20834;-51
2023/09/08 10:03:01;;;;;;;10.77;5.20;;;;;;;26.44;55.64;101630.19;4988617;28;20271;-47
2023/09/08 10:05:27;;;;;;;5.55;4.53;;;;;;;26.48;56.21;101634.38;4988568;28;20335;-46
2023/09/08 10:07:53;;;;;;;10.00;5.13;;;;;;;26.45;56.20;101645.63;4970737;28;20292;-48
2023/09/08 10:10:20;;;;;;;10.32;5.28;;;;;;;26.66;56.80;101651.06;4988544;28;20196;-48
2023/09/08 10:12:52;;;;;;;9.18;4.95;;;;;;;26.98;57.00;101653.50;4988440;28;20172;-46
2023/09/08 10:15:21;;;;;;;6.28;4.63;;;;;;;26.93;56.02;101653.94;4988546;28;20530;-46
2023/09/08 10:17:52;;;;;;;4.97;4.55;;;;;;;26.92;56.60;101656.84;4988375;28;20200;-51
2023/09/08 10:20:21;;;;;;;6.47;5.10;;;;;;;26.76;55.64;101640.06;4988081;28;20203;-47
2023/09/08 10:22:54;;;;;;;8.23;5.05;;;;;;;26.96;55.91;101643.66;4988160;28;20196;-45
2023/09/08 10:25:21;;;;;;;5.78;4.35;;;;;;;27.45;55.68;101642.59;4981296;28;20175;-50
2023/09/08 10:27:47;;;;;;;8.98;5.22;;;;;;;27.29;54.49;101615.72;4988344;28;20763;-45
2023/09/08 10:30:14;;;;;;;6.90;4.55;;;;;;;27.25;55.59;101635.41;4973048;28;20197;-46
2023/09/08 10:32:41;;;;;;;9.70;4.88;;;;;;;27.23;55.07;101619.03;4988301;28;20177;-51
2023/09/08 10:35:08;;;;;;;5.38;4.55;;;;;;;27.36;54.82;101621.47;4988133;28;20193;-47
2023/09/08 10:37:33;;;;;;;5.40;4.38;;;;;;;27.37;54.02;101603.06;4988152;28;20196;-45
2023/09/08 10:40:24;;;;;;;4.93;4.45;;;;;;;27.56;52.93;101596.66;4988808;28;20615;-48
2023/09/08 10:43:06;;;;;;;7.72;4.30;;;;;;;27.48;52.72;101591.88;4991631;28;20177;-46
2023/09/08 10:45:31;;;;;;;4.10;3.72;;;;;;;27.53;51.63;101564.78;4991682;28;20176;-46
2023/09/08 10:47:57;;;;;;;5.57;4.00;;;;;;;27.54;51.73;101567.38;4991532;28;20209;-48
2023/09/08 10:50:42;;;;;;;10.50;4.65;;;;;;;27.76;50.86;101554.22;4991402;28;20215;-52
2023/09/08 10:53:17;;;;;;;6.43;4.07;;;;;;;27.86;51.10;101568.84;4974369;28;20194;-47
2023/09/08 10:55:48;;;;;;;4.78;4.32;;;;;;;27.90;50.82;101562.00;4991549;28;20168;-45
2023/09/08 10:58:33;;;;;;;4.15;3.72;;;;;;;28.30;50.56;101563.47;4991716;28;20173;-50
2023/09/08 11:01:01;;;;;;;4.53;3.80;;;;;;;28.59;48.71;101540.34;4991399;28;20717;-47
2023/09/08 11:03:49;;;;;;;7.40;3.72;;;;;;;28.16;48.97;101530.94;4991901;28;20563;-48
2023/09/08 11:06:19;;;;;;;6.53;4.20;;;;;;;28.16;48.66;101528.19;4991300;28;20344;-48
2023/09/08 11:08:45;;;;;;;4.65;3.67;;;;;;;28.13;48.07;101517.47;4971983;28;20185;-48
2023/09/08 11:11:13;;;;;;;4.90;4.13;;;;;;;28.25;49.09;101542.91;4971942;28;20791;-45
2023/09/08 11:13:42;;;;;;;4.90;4.18;;;;;;;28.42;48.76;101533.75;4978198;28;20215;-48
2023/09/08 11:16:07;;;;;;;6.40;4.32;;;;;;;28.44;48.30;101528.97;4991124;28;20181;-46